sensor_id;sensor_type;location;lat;lon;timestamp;pressure;altitude;pressure_sealevel;temperature;humidity
24762;BME280;12865;51.934;10.330;2023-03-13T00:02:03;98098.34;;;8.06;100.00
24762;BME280;12865;51.934;10.330;2023-03-13T00:04:50;98087.78;;;8.14;100.00
24762;BME280;12865;51.934;10.330;2023-03-13T00:07:36;98088.69;;;8.05;100.00
24762;BME280;12865;51.934;10.330;2023-03-13T00:10:21;98082.41;;;8.06;100.00
24762;BME280;12865;51.934;10.330;2023-03-13T00:13:08;98084.59;;;8.10;100.00
24762;BME280;12865;51.934;10.330;2023-03-13T00:16:01;98084.34;;;8.21;100.00
24762;BME280;12865;51.934;10.330;2023-03-13T00:18:50;98073.53;;;8.33;100.00
24762;BME280;12865;51.934;10.330;2023-03-13T00:21:36;98066.81;;;8.28;100.00
24762;BME280;12865;51.934;10.330;2023-03-13T00:24:22;98060.69;;;8.28;100.00
24762;BME280;12865;51.934;10.330;2023-03-13T00:27:08;98056.69;;;8.24;100.00
24762;BME280;12865;51.934;10.330;2023-03-13T00:29:53;98045.06;;;8.25;100.00
24762;BME280;12865;51.934;10.330;2023-03-13T00:32:40;98039.41;;;8.20;100.00
24762;BME280;12865;51.934;10.330;2023-03-13T00:35:26;98037.50;;;8.12;100.00
24762;BME280;12865;51.934;10.330;2023-03-13T00:38:12;98030.13;;;8.24;100.00
24762;BME280;12865;51.934;10.330;2023-03-13T00:41:02;98030.81;;;8.26;100.00
24762;BME280;12865;51.934;10.330;2023-03-13T00:43:49;98028.22;;;8.34;100.00
24762;BME280;12865;51.934;10.330;2023-03-13T00:46:35;98024.78;;;8.34;100.00
24762;BME280;12865;51.934;10.330;2023-03-13T00:49:21;98020.34;;;8.24;100.00
24762;BME280;12865;51.934;10.330;2023-03-13T00:52:07;98010.03;;;8.39;100.00
24762;BME280;12865;51.934;10.330;2023-03-13T00:54:52;98015.28;;;8.31;100.00
24762;BME280;12865;51.934;10.330;2023-03-13T00:57:38;98007.75;;;8.26;100.00
24762;BME280;12865;51.934;10.330;2023-03-13T01:00:24;98010.56;;;8.25;100.00
24762;BME280;12865;51.934;10.330;2023-03-13T01:03:09;98012.47;;;8.33;100.00
24762;BME280;12865;51.934;10.330;2023-03-13T01:06:00;97998.44;;;8.40;100.00
24762;BME280;12865;51.934;10.330;2023-03-13T01:08:46;98004.50;;;8.33;100.00
24762;BME280;12865;51.934;10.330;2023-03-13T01:11:35;97998.94;;;8.44;100.00
24762;BME280;12865;51.934;10.330;2023-03-13T01:14:21;97992.72;;;8.35;100.00
24762;BME280;12865;51.934;10.330;2023-03-13T01:17:06;97990.75;;;8.37;100.00
24762;BME280;12865;51.934;10.330;2023-03-13T01:19:55;97992.53;;;8.54;100.00
24762;BME280;12865;51.934;10.330;2023-03-13T01:22:41;97977.88;;;8.50;100.00
24762;BME280;12865;51.934;10.330;2023-03-13T01:25:27;97993.69;;;8.52;100.00
24762;BME280;12865;51.934;10.330;2023-03-13T01:28:13;97986.69;;;8.51;100.00
24762;BME280;12865;51.934;10.330;2023-03-13T01:30:59;97983.75;;;8.54;100.00
24762;BME280;12865;51.934;10.330;2023-03-13T01:33:47;97980.59;;;8.58;100.00
24762;BME280;12865;51.934;10.330;2023-03-13T01:36:34;97962.31;;;8.55;100.00
24762;BME280;12865;51.934;10.330;2023-03-13T01:39:20;97970.97;;;8.57;100.00
24762;BME280;12865;51.934;10.330;2023-03-13T01:42:07;97968.16;;;8.59;100.00
24762;BME280;12865;51.934;10.330;2023-03-13T01:44:55;97964.66;;;8.58;100.00
24762;BME280;12865;51.934;10.330;2023-03-13T01:47:41;97958.84;;;8.55;100.00
24762;BME280;12865;51.934;10.330;2023-03-13T01:50:27;97956.84;;;8.57;100.00
24762;BME280;12865;51.934;10.330;2023-03-13T01:53:13;97952.56;;;8.64;100.00
24762;BME280;12865;51.934;10.330;2023-03-13T01:55:59;97941.25;;;8.54;100.00
24762;BME280;12865;51.934;10.330;2023-03-13T01:58:48;97936.63;;;8.64;100.00
24762;BME280;12865;51.934;10.330;2023-03-13T02:01:35;97936.13;;;8.60;100.00
24762;BME280;12865;51.934;10.330;2023-03-13T02:04:22;97909.66;;;8.51;100.00
24762;BME280;12865;51.934;10.330;2023-03-13T02:07:15;97914.28;;;8.41;100.00
24762;BME280;12865;51.934;10.330;2023-03-13T02:10:04;97918.44;;;8.43;100.00
24762;BME280;12865;51.934;10.330;2023-03-13T02:12:51;97911.50;;;8.50;100.00
24762;BME280;12865;51.934;10.330;2023-03-13T02:15:36;97900.53;;;8.45;100.00
24762;BME280;12865;51.934;10.330;2023-03-13T02:18:22;97901.03;;;8.49;100.00
24762;BME280;12865;51.934;10.330;2023-03-13T02:21:30;97886.56;;;8.43;100.00
24762;BME280;12865;51.934;10.330;2023-03-13T02:27:13;97879.75;;;8.41;100.00
24762;BME280;12865;51.934;10.330;2023-03-13T02:29:58;97865.47;;;8.42;100.00
24762;BME280;12865;51.934;10.330;2023-03-13T02:32:44;97859.25;;;8.25;100.00
24762;BME280;12865;51.934;10.330;2023-03-13T02:35:30;97856.25;;;8.28;100.00
24762;BME280;12865;51.934;10.330;2023-03-13T02:38:23;97846.78;;;8.25;100.00
24762;BME280;12865;51.934;10.330;2023-03-13T02:41:12;97839.66;;;8.26;100.00
24762;BME280;12865;51.934;10.330;2023-03-13T02:43:58;97838.75;;;8.43;100.00
24762;BME280;12865;51.934;10.330;2023-03-13T02:46:45;97836.78;;;8.45;100.00
24762;BME280;12865;51.934;10.330;2023-03-13T02:49:31;97829.13;;;8.42;100.00
24762;BME280;12865;51.934;10.330;2023-03-13T02:52:26;97821.34;;;8.49;100.00
24762;BME280;12865;51.934;10.330;2023-03-13T02:55:16;97815.19;;;8.48;100.00
24762;BME280;12865;51.934;10.330;2023-03-13T02:58:06;97806.78;;;8.53;100.00
24762;BME280;12865;51.934;10.330;2023-03-13T03:00:52;97808.25;;;8.55;100.00
24762;BME280;12865;51.934;10.330;2023-03-13T03:03:38;97800.28;;;8.55;100.00
24762;BME280;12865;51.934;10.330;2023-03-13T03:06:23;97782.53;;;8.56;100.00
24762;BME280;12865;51.934;10.330;2023-03-13T03:09:09;97791.81;;;8.52;100.00
24762;BME280;12865;51.934;10.330;2023-03-13T03:11:55;97768.22;;;8.49;100.00
24762;BME280;12865;51.934;10.330;2023-03-13T03:14:40;97774.56;;;8.48;100.00
24762;BME280;12865;51.934;10.330;2023-03-13T03:17:26;97760.28;;;8.41;100.00
24762;BME280;12865;51.934;10.330;2023-03-13T03:20:12;97746.78;;;8.34;100.00
24762;BME280;12865;51.934;10.330;2023-03-13T03:22:57;97742.94;;;8.28;100.00
24762;BME280;12865;51.934;10.330;2023-03-13T03:25:43;97750.94;;;8.37;100.00
24762;BME280;12865;51.934;10.330;2023-03-13T03:28:29;97726.06;;;8.38;100.00
24762;BME280;12865;51.934;10.330;2023-03-13T03:31:15;97716.75;;;8.42;100.00
24762;BME280;12865;51.934;10.330;2023-03-13T03:34:01;97713.94;;;8.35;100.00
24762;BME280;12865;51.934;10.330;2023-03-13T03:36:47;97692.22;;;8.40;100.00
24762;BME280;12865;51.934;10.330;2023-03-13T03:39:32;97694.31;;;8.28;100.00
24762;BME280;12865;51.934;10.330;2023-03-13T03:42:18;97681.91;;;8.37;100.00
24762;BME280;12865;51.934;10.330;2023-03-13T03:45:04;97683.25;;;8.33;100.00
24762;BME280;12865;51.934;10.330;2023-03-13T03:47:50;97671.06;;;8.22;100.00
24762;BME280;12865;51.934;10.330;2023-03-13T03:50:36;97647.53;;;8.19;100.00
24762;BME280;12865;51.934;10.330;2023-03-13T03:53:22;97629.13;;;8.25;100.00
24762;BME280;12865;51.934;10.330;2023-03-13T03:56:08;97622.28;;;8.23;100.00
24762;BME280;12865;51.934;10.330;2023-03-13T03:58:53;97613.69;;;8.29;100.00
24762;BME280;12865;51.934;10.330;2023-03-13T04:01:39;97615.38;;;8.46;100.00
24762;BME280;12865;51.934;10.330;2023-03-13T04:04:25;97597.78;;;8.37;100.00
24762;BME280;12865;51.934;10.330;2023-03-13T04:07:10;97595.28;;;8.44;100.00
24762;BME280;12865;51.934;10.330;2023-03-13T04:09:56;97583.53;;;8.46;100.00
24762;BME280;12865;51.934;10.330;2023-03-13T04:12:42;97588.47;;;8.49;100.00
24762;BME280;12865;51.934;10.330;2023-03-13T04:15:28;97578.84;;;8.48;100.00
24762;BME280;12865;51.934;10.330;2023-03-13T04:18:13;97567.75;;;8.53;100.00
24762;BME280;12865;51.934;10.330;2023-03-13T04:21:01;97571.56;;;8.58;100.00
24762;BME280;12865;51.934;10.330;2023-03-13T04:23:48;97555.16;;;8.47;100.00
24762;BME280;12865;51.934;10.330;2023-03-13T04:26:33;97548.84;;;8.40;100.00
24762;BME280;12865;51.934;10.330;2023-03-13T04:29:19;97537.53;;;8.54;100.00
24762;BME280;12865;51.934;10.330;2023-03-13T04:32:05;97528.41;;;8.48;100.00
24762;BME280;12865;51.934;10.330;2023-03-13T04:34:50;97517.44;;;8.51;100.00
24762;BME280;12865;51.934;10.330;2023-03-13T04:37:36;97525.25;;;8.53;100.00
24762;BME280;12865;51.934;10.330;2023-03-13T04:40:22;97523.75;;;8.50;100.00
24762;BME280;12865;51.934;10.330;2023-03-13T04:43:08;97545.00;;;8.58;100.00
24762;BME280;12865;51.934;10.330;2023-03-13T04:45:53;97524.25;;;8.62;100.00
24762;BME280;12865;51.934;10.330;2023-03-13T04:48:39;97527.56;;;8.56;100.00
24762;BME280;12865;51.934;10.330;2023-03-13T04:51:25;97535.88;;;8.53;100.00
24762;BME280;12865;51.934;10.330;2023-03-13T04:54:11;97530.06;;;8.57;100.00
24762;BME280;12865;51.934;10.330;2023-03-13T04:56:57;97518.94;;;8.54;100.00
24762;BME280;12865;51.934;10.330;2023-03-13T04:59:42;97521.44;;;8.47;100.00
24762;BME280;12865;51.934;10.330;2023-03-13T05:02:28;97509.50;;;8.43;100.00
24762;BME280;12865;51.934;10.330;2023-03-13T05:05:14;97503.03;;;8.38;100.00
24762;BME280;12865;51.934;10.330;2023-03-13T05:08:00;97496.06;;;8.37;100.00
24762;BME280;12865;51.934;10.330;2023-03-13T05:10:46;97491.91;;;8.42;100.00
24762;BME280;12865;51.934;10.330;2023-03-13T05:13:32;97484.44;;;8.38;100.00
24762;BME280;12865;51.934;10.330;2023-03-13T05:16:17;97486.28;;;8.37;100.00
24762;BME280;12865;51.934;10.330;2023-03-13T05:19:03;97481.13;;;8.44;100.00
24762;BME280;12865;51.934;10.330;2023-03-13T05:21:49;97482.25;;;8.49;100.00
24762;BME280;12865;51.934;10.330;2023-03-13T05:24:34;97473.31;;;8.50;100.00
24762;BME280;12865;51.934;10.330;2023-03-13T05:27:20;97467.84;;;8.44;100.00
24762;BME280;12865;51.934;10.330;2023-03-13T05:30:06;97462.00;;;8.48;100.00
24762;BME280;12865;51.934;10.330;2023-03-13T05:32:52;97443.41;;;8.48;100.00
24762;BME280;12865;51.934;10.330;2023-03-13T05:35:37;97444.41;;;8.55;100.00
24762;BME280;12865;51.934;10.330;2023-03-13T05:38:24;97435.97;;;8.52;100.00
24762;BME280;12865;51.934;10.330;2023-03-13T05:41:10;97452.41;;;8.47;100.00
24762;BME280;12865;51.934;10.330;2023-03-13T05:43:55;97429.81;;;8.51;100.00
24762;BME280;12865;51.934;10.330;2023-03-13T05:46:41;97439.78;;;8.49;100.00
24762;BME280;12865;51.934;10.330;2023-03-13T05:49:26;97446.88;;;8.57;100.00
24762;BME280;12865;51.934;10.330;2023-03-13T05:52:12;97445.50;;;8.69;100.00
24762;BME280;12865;51.934;10.330;2023-03-13T05:54:58;97434.72;;;8.71;100.00
24762;BME280;12865;51.934;10.330;2023-03-13T05:57:44;97438.03;;;8.73;100.00
24762;BME280;12865;51.934;10.330;2023-03-13T06:00:30;97424.94;;;8.71;100.00
24762;BME280;12865;51.934;10.330;2023-03-13T06:03:16;97414.41;;;8.86;100.00
24762;BME280;12865;51.934;10.330;2023-03-13T06:06:02;97410.09;;;8.85;100.00
24762;BME280;12865;51.934;10.330;2023-03-13T06:08:48;97417.22;;;8.84;100.00
24762;BME280;12865;51.934;10.330;2023-03-13T06:11:33;97389.78;;;8.92;100.00
24762;BME280;12865;51.934;10.330;2023-03-13T06:14:19;97402.91;;;8.93;100.00
24762;BME280;12865;51.934;10.330;2023-03-13T06:17:08;97405.66;;;9.08;100.00
24762;BME280;12865;51.934;10.330;2023-03-13T06:19:53;97373.72;;;9.16;100.00
24762;BME280;12865;51.934;10.330;2023-03-13T06:22:39;97386.47;;;9.21;100.00
24762;BME280;12865;51.934;10.330;2023-03-13T06:25:25;97387.53;;;9.34;100.00
24762;BME280;12865;51.934;10.330;2023-03-13T06:28:11;97366.44;;;9.33;100.00
24762;BME280;12865;51.934;10.330;2023-03-13T06:31:04;97374.84;;;9.44;100.00
24762;BME280;12865;51.934;10.330;2023-03-13T06:33:53;97373.25;;;9.58;100.00
24762;BME280;12865;51.934;10.330;2023-03-13T06:36:39;97377.91;;;9.56;100.00
24762;BME280;12865;51.934;10.330;2023-03-13T06:39:25;97375.47;;;9.69;100.00
24762;BME280;12865;51.934;10.330;2023-03-13T06:42:10;97373.69;;;9.62;100.00
24762;BME280;12865;51.934;10.330;2023-03-13T06:44:56;97374.41;;;9.56;100.00
24762;BME280;12865;51.934;10.330;2023-03-13T06:47:42;97367.09;;;9.58;100.00
24762;BME280;12865;51.934;10.330;2023-03-13T06:50:28;97365.53;;;9.63;100.00
24762;BME280;12865;51.934;10.330;2023-03-13T06:53:15;97329.41;;;9.69;100.00
24762;BME280;12865;51.934;10.330;2023-03-13T06:56:01;97341.53;;;9.71;100.00
24762;BME280;12865;51.934;10.330;2023-03-13T06:58:48;97353.84;;;9.72;100.00
24762;BME280;12865;51.934;10.330;2023-03-13T07:01:34;97320.69;;;9.75;100.00
24762;BME280;12865;51.934;10.330;2023-03-13T07:04:20;97350.63;;;9.77;100.00
24762;BME280;12865;51.934;10.330;2023-03-13T07:07:06;97358.44;;;9.78;100.00
24762;BME280;12865;51.934;10.330;2023-03-13T07:09:51;97342.56;;;9.85;100.00
24762;BME280;12865;51.934;10.330;2023-03-13T07:12:37;97369.19;;;9.85;100.00
24762;BME280;12865;51.934;10.330;2023-03-13T07:15:23;97376.16;;;9.86;100.00
24762;BME280;12865;51.934;10.330;2023-03-13T07:18:08;97374.78;;;9.90;100.00
24762;BME280;12865;51.934;10.330;2023-03-13T07:20:56;97381.09;;;9.89;100.00
24762;BME280;12865;51.934;10.330;2023-03-13T07:23:42;97388.28;;;10.03;100.00
24762;BME280;12865;51.934;10.330;2023-03-13T07:26:28;97393.28;;;10.06;100.00
24762;BME280;12865;51.934;10.330;2023-03-13T07:29:14;97381.22;;;10.10;100.00
24762;BME280;12865;51.934;10.330;2023-03-13T07:32:00;97388.50;;;10.16;100.00
24762;BME280;12865;51.934;10.330;2023-03-13T07:34:45;97375.69;;;10.20;100.00
24762;BME280;12865;51.934;10.330;2023-03-13T07:37:31;97405.63;;;10.22;100.00
24762;BME280;12865;51.934;10.330;2023-03-13T07:40:17;97394.59;;;10.25;100.00
24762;BME280;12865;51.934;10.330;2023-03-13T07:43:02;97379.63;;;10.24;100.00
24762;BME280;12865;51.934;10.330;2023-03-13T07:45:53;97374.13;;;10.26;100.00
24762;BME280;12865;51.934;10.330;2023-03-13T07:48:41;97396.91;;;10.28;100.00
24762;BME280;12865;51.934;10.330;2023-03-13T07:51:27;97368.72;;;10.34;100.00
24762;BME280;12865;51.934;10.330;2023-03-13T07:54:12;97370.81;;;10.38;100.00
24762;BME280;12865;51.934;10.330;2023-03-13T07:57:00;97375.22;;;10.46;100.00
24762;BME280;12865;51.934;10.330;2023-03-13T07:59:46;97398.47;;;10.52;100.00
24762;BME280;12865;51.934;10.330;2023-03-13T08:02:32;97401.03;;;10.60;100.00
24762;BME280;12865;51.934;10.330;2023-03-13T08:05:18;97398.19;;;10.61;100.00
24762;BME280;12865;51.934;10.330;2023-03-13T08:08:03;97392.03;;;10.61;100.00
24762;BME280;12865;51.934;10.330;2023-03-13T08:10:49;97378.25;;;10.72;100.00
24762;BME280;12865;51.934;10.330;2023-03-13T08:13:36;97397.00;;;10.79;100.00
24762;BME280;12865;51.934;10.330;2023-03-13T08:16:27;97397.69;;;10.87;100.00
24762;BME280;12865;51.934;10.330;2023-03-13T08:19:13;97389.34;;;10.90;100.00
24762;BME280;12865;51.934;10.330;2023-03-13T08:21:59;97393.19;;;10.88;100.00
24762;BME280;12865;51.934;10.330;2023-03-13T08:24:44;97396.59;;;10.96;100.00
24762;BME280;12865;51.934;10.330;2023-03-13T08:27:30;97399.06;;;10.98;100.00
24762;BME280;12865;51.934;10.330;2023-03-13T08:30:16;97379.78;;;10.96;100.00
24762;BME280;12865;51.934;10.330;2023-03-13T08:33:01;97380.59;;;10.96;100.00
24762;BME280;12865;51.934;10.330;2023-03-13T08:35:47;97396.22;;;10.99;100.00
24762;BME280;12865;51.934;10.330;2023-03-13T08:38:33;97375.16;;;11.05;100.00
24762;BME280;12865;51.934;10.330;2023-03-13T08:43:46;97376.63;;;11.07;100.00
24762;BME280;12865;51.934;10.330;2023-03-13T08:46:33;97379.84;;;11.02;100.00
24762;BME280;12865;51.934;10.330;2023-03-13T08:49:20;97372.09;;;11.08;100.00
24762;BME280;12865;51.934;10.330;2023-03-13T08:52:05;97378.94;;;10.95;100.00
24762;BME280;12865;51.934;10.330;2023-03-13T08:54:51;97370.56;;;10.98;100.00
24762;BME280;12865;51.934;10.330;2023-03-13T08:57:37;97368.09;;;10.97;100.00
24762;BME280;12865;51.934;10.330;2023-03-13T09:00:23;97367.09;;;10.98;100.00
24762;BME280;12865;51.934;10.330;2023-03-13T09:03:08;97353.66;;;11.06;100.00
24762;BME280;12865;51.934;10.330;2023-03-13T09:05:56;97346.66;;;11.26;100.00
24762;BME280;12865;51.934;10.330;2023-03-13T09:08:42;97335.88;;;11.56;100.00
24762;BME280;12865;51.934;10.330;2023-03-13T09:11:28;97348.41;;;11.76;100.00
24762;BME280;12865;51.934;10.330;2023-03-13T09:14:14;97328.94;;;11.83;100.00
24762;BME280;12865;51.934;10.330;2023-03-13T09:17:00;97359.78;;;11.92;100.00
24762;BME280;12865;51.934;10.330;2023-03-13T09:19:45;97344.34;;;12.15;100.00
24762;BME280;12865;51.934;10.330;2023-03-13T09:22:31;97335.28;;;12.44;100.00
24762;BME280;12865;51.934;10.330;2023-03-13T09:25:17;97328.16;;;12.57;100.00
24762;BME280;12865;51.934;10.330;2023-03-13T09:28:02;97334.41;;;12.78;100.00
24762;BME280;12865;51.934;10.330;2023-03-13T09:30:48;97320.00;;;12.79;100.00
24762;BME280;12865;51.934;10.330;2023-03-13T09:33:34;97308.56;;;12.98;100.00
24762;BME280;12865;51.934;10.330;2023-03-13T09:36:21;97299.31;;;13.01;100.00
24762;BME280;12865;51.934;10.330;2023-03-13T09:39:08;97308.22;;;13.21;100.00
24762;BME280;12865;51.934;10.330;2023-03-13T09:42:03;97306.41;;;13.34;100.00
24762;BME280;12865;51.934;10.330;2023-03-13T09:45:12;97311.34;;;13.38;100.00
24762;BME280;12865;51.934;10.330;2023-03-13T09:48:07;97284.59;;;13.38;100.00
24762;BME280;12865;51.934;10.330;2023-03-13T09:51:22;97301.06;;;13.41;100.00
24762;BME280;12865;51.934;10.330;2023-03-13T09:54:22;97290.53;;;13.40;100.00
24762;BME280;12865;51.934;10.330;2023-03-13T09:57:20;97279.63;;;13.41;100.00
24762;BME280;12865;51.934;10.330;2023-03-13T10:00:13;97270.97;;;13.32;100.00
24762;BME280;12865;51.934;10.330;2023-03-13T10:03:12;97277.78;;;13.35;100.00
24762;BME280;12865;51.934;10.330;2023-03-13T10:06:03;97275.72;;;13.30;100.00
24762;BME280;12865;51.934;10.330;2023-03-13T10:08:49;97280.06;;;13.31;100.00
24762;BME280;12865;51.934;10.330;2023-03-13T10:11:46;97273.88;;;13.31;100.00
24762;BME280;12865;51.934;10.330;2023-03-13T10:14:42;97280.66;;;13.33;100.00
24762;BME280;12865;51.934;10.330;2023-03-13T10:17:37;97273.66;;;13.32;100.00
24762;BME280;12865;51.934;10.330;2023-03-13T10:20:26;97278.63;;;13.42;100.00
24762;BME280;12865;51.934;10.330;2023-03-13T10:23:21;97273.06;;;13.30;100.00
24762;BME280;12865;51.934;10.330;2023-03-13T10:26:24;97275.50;;;13.32;100.00
24762;BME280;12865;51.934;10.330;2023-03-13T10:29:23;97276.56;;;13.24;100.00
24762;BME280;12865;51.934;10.330;2023-03-13T10:32:12;97265.03;;;13.30;100.00
24762;BME280;12865;51.934;10.330;2023-03-13T10:35:00;97251.66;;;13.37;100.00
24762;BME280;12865;51.934;10.330;2023-03-13T10:37:46;97263.56;;;13.34;100.00
24762;BME280;12865;51.934;10.330;2023-03-13T10:40:31;97264.00;;;13.45;100.00
24762;BME280;12865;51.934;10.330;2023-03-13T10:43:19;97265.22;;;13.42;100.00
24762;BME280;12865;51.934;10.330;2023-03-13T10:46:07;97275.75;;;13.44;100.00
24762;BME280;12865;51.934;10.330;2023-03-13T10:48:54;97281.91;;;13.38;100.00
24762;BME280;12865;51.934;10.330;2023-03-13T10:51:46;97280.25;;;13.30;100.00
24762;BME280;12865;51.934;10.330;2023-03-13T10:54:34;97286.19;;;13.25;100.00
24762;BME280;12865;51.934;10.330;2023-03-13T11:00:26;97303.03;;;13.06;100.00
24762;BME280;12865;51.934;10.330;2023-03-13T11:03:18;97299.13;;;13.02;100.00
24762;BME280;12865;51.934;10.330;2023-03-13T11:09:09;97288.38;;;12.82;100.00
24762;BME280;12865;51.934;10.330;2023-03-13T11:12:25;97295.59;;;12.95;100.00
24762;BME280;12865;51.934;10.330;2023-03-13T11:18:35;97296.41;;;12.95;100.00
24762;BME280;12865;51.934;10.330;2023-03-13T11:21:23;97284.06;;;12.94;100.00
24762;BME280;12865;51.934;10.330;2023-03-13T11:24:21;97317.06;;;13.15;100.00
24762;BME280;12865;51.934;10.330;2023-03-13T11:30:44;97290.91;;;13.10;100.00
24762;BME280;12865;51.934;10.330;2023-03-13T11:37:10;97274.09;;;13.36;100.00
24762;BME280;12865;51.934;10.330;2023-03-13T11:40:27;97272.63;;;13.60;100.00
24762;BME280;12865;51.934;10.330;2023-03-13T11:46:18;97267.44;;;13.98;100.00
24762;BME280;12865;51.934;10.330;2023-03-13T11:55:18;97252.59;;;13.95;100.00
24762;BME280;12865;51.934;10.330;2023-03-13T12:01:10;97261.69;;;13.81;100.00
24762;BME280;12865;51.934;10.330;2023-03-13T12:10:26;97260.06;;;13.80;100.00
24762;BME280;12865;51.934;10.330;2023-03-13T12:13:29;97262.97;;;13.65;100.00
24762;BME280;12865;51.934;10.330;2023-03-13T12:16:24;97253.09;;;13.66;100.00
24762;BME280;12865;51.934;10.330;2023-03-13T12:19:14;97236.34;;;13.97;100.00
24762;BME280;12865;51.934;10.330;2023-03-13T12:22:26;97244.13;;;14.11;100.00
24762;BME280;12865;51.934;10.330;2023-03-13T12:25:32;97237.94;;;14.11;100.00
24762;BME280;12865;51.934;10.330;2023-03-13T12:31:18;97230.88;;;14.30;100.00
24762;BME280;12865;51.934;10.330;2023-03-13T12:34:27;97224.06;;;14.34;100.00
24762;BME280;12865;51.934;10.330;2023-03-13T12:40:28;97232.09;;;14.34;100.00
24762;BME280;12865;51.934;10.330;2023-03-13T12:43:23;97221.22;;;14.29;100.00
24762;BME280;12865;51.934;10.330;2023-03-13T12:46:35;97206.13;;;14.34;100.00
24762;BME280;12865;51.934;10.330;2023-03-13T12:49:38;97219.13;;;14.31;100.00
24762;BME280;12865;51.934;10.330;2023-03-13T12:52:40;97210.50;;;14.29;100.00
24762;BME280;12865;51.934;10.330;2023-03-13T12:58:52;97205.31;;;14.34;100.00
24762;BME280;12865;51.934;10.330;2023-03-13T13:01:43;97187.16;;;14.42;100.00
24762;BME280;12865;51.934;10.330;2023-03-13T13:04:31;97183.78;;;14.53;100.00
24762;BME280;12865;51.934;10.330;2023-03-13T13:16:03;97170.94;;;14.93;100.00
24762;BME280;12865;51.934;10.330;2023-03-13T13:18:49;97156.53;;;14.88;100.00
24762;BME280;12865;51.934;10.330;2023-03-13T13:21:35;97178.63;;;14.90;100.00
24762;BME280;12865;51.934;10.330;2023-03-13T13:24:40;97159.00;;;14.89;100.00
24762;BME280;12865;51.934;10.330;2023-03-13T13:30:30;97150.28;;;15.44;99.49
24762;BME280;12865;51.934;10.330;2023-03-13T13:38:55;97148.69;;;15.18;100.00
24762;BME280;12865;51.934;10.330;2023-03-13T13:41:41;97141.28;;;15.13;100.00
24762;BME280;12865;51.934;10.330;2023-03-13T13:44:28;97136.41;;;15.04;100.00
24762;BME280;12865;51.934;10.330;2023-03-13T13:47:22;97134.91;;;15.08;100.00
24762;BME280;12865;51.934;10.330;2023-03-13T13:50:19;97139.41;;;15.14;100.00
24762;BME280;12865;51.934;10.330;2023-03-13T14:05:02;97126.28;;;15.06;100.00
24762;BME280;12865;51.934;10.330;2023-03-13T14:07:57;97121.13;;;15.04;100.00
24762;BME280;12865;51.934;10.330;2023-03-13T14:17:00;97098.91;;;14.97;100.00
24762;BME280;12865;51.934;10.330;2023-03-13T14:19:47;97099.09;;;14.96;100.00
24762;BME280;12865;51.934;10.330;2023-03-13T14:22:44;97101.28;;;14.80;100.00
24762;BME280;12865;51.934;10.330;2023-03-13T14:25:41;97107.47;;;14.81;100.00
24762;BME280;12865;51.934;10.330;2023-03-13T14:28:28;97112.94;;;14.68;100.00
24762;BME280;12865;51.934;10.330;2023-03-13T14:34:11;97111.59;;;14.52;100.00
24762;BME280;12865;51.934;10.330;2023-03-13T14:36:58;97117.66;;;14.34;100.00
24762;BME280;12865;51.934;10.330;2023-03-13T14:39:45;97112.41;;;14.14;100.00
24762;BME280;12865;51.934;10.330;2023-03-13T14:42:37;97093.28;;;14.04;100.00
24762;BME280;12865;51.934;10.330;2023-03-13T14:45:28;97105.03;;;14.03;100.00
24762;BME280;12865;51.934;10.330;2023-03-13T14:48:28;97100.09;;;14.07;100.00
24762;BME280;12865;51.934;10.330;2023-03-13T14:51:20;97098.41;;;14.12;100.00
24762;BME280;12865;51.934;10.330;2023-03-13T14:54:55;97080.28;;;14.14;100.00
24762;BME280;12865;51.934;10.330;2023-03-13T14:58:00;97078.28;;;14.35;100.00
24762;BME280;12865;51.934;10.330;2023-03-13T15:00:48;97084.84;;;14.45;100.00
24762;BME280;12865;51.934;10.330;2023-03-13T15:03:34;97074.47;;;14.56;100.00
24762;BME280;12865;51.934;10.330;2023-03-13T15:06:21;97084.09;;;14.63;100.00
24762;BME280;12865;51.934;10.330;2023-03-13T15:09:23;97069.81;;;14.69;100.00
24762;BME280;12865;51.934;10.330;2023-03-13T15:12:14;97069.63;;;14.71;100.00
24762;BME280;12865;51.934;10.330;2023-03-13T15:15:00;97072.66;;;14.74;100.00
24762;BME280;12865;51.934;10.330;2023-03-13T15:17:46;97086.41;;;14.84;100.00
24762;BME280;12865;51.934;10.330;2023-03-13T15:20:31;97061.28;;;14.79;100.00
24762;BME280;12865;51.934;10.330;2023-03-13T15:23:17;97044.03;;;14.68;100.00
24762;BME280;12865;51.934;10.330;2023-03-13T15:26:04;97038.34;;;14.58;100.00
24762;BME280;12865;51.934;10.330;2023-03-13T15:28:50;97039.03;;;14.72;100.00
24762;BME280;12865;51.934;10.330;2023-03-13T15:31:36;97013.34;;;14.64;100.00
24762;BME280;12865;51.934;10.330;2023-03-13T15:34:22;97033.44;;;14.55;100.00
24762;BME280;12865;51.934;10.330;2023-03-13T15:37:11;97021.53;;;14.44;100.00
24762;BME280;12865;51.934;10.330;2023-03-13T15:39:58;97014.94;;;14.47;100.00
24762;BME280;12865;51.934;10.330;2023-03-13T15:42:44;97006.00;;;14.53;100.00
24762;BME280;12865;51.934;10.330;2023-03-13T15:45:30;96999.72;;;14.41;100.00
24762;BME280;12865;51.934;10.330;2023-03-13T15:48:22;96994.78;;;14.38;100.00
24762;BME280;12865;51.934;10.330;2023-03-13T15:51:11;96995.38;;;14.40;100.00
24762;BME280;12865;51.934;10.330;2023-03-13T15:53:58;96989.84;;;14.35;100.00
24762;BME280;12865;51.934;10.330;2023-03-13T15:56:44;96986.53;;;14.33;100.00
24762;BME280;12865;51.934;10.330;2023-03-13T15:59:32;96971.28;;;14.33;100.00
24762;BME280;12865;51.934;10.330;2023-03-13T16:02:20;96972.78;;;14.29;100.00
24762;BME280;12865;51.934;10.330;2023-03-13T16:05:07;96964.75;;;14.29;100.00